Brant — 5BBK2 — position and weather

sailwx.info

Track history (hours):
 
Tides and Currents Weather Stations Pressure Air Temp Water Temp Dewpoint Dewpoint Depression Visibility Wind Speed Wind Dir Waves Ship Positions

Brant

Last reported at 2018-Apr-14 10:14 UTC. Time now 2018-Apr-20 22:17 UTC.
Position N 46°50' W 071°10'.

Length 185 m; draft 8.1 m.

Type: Cargo ship. MMSI: 212372000.

Date/timePositionNaut miles runAvg speedWind from/ knotsBaromVisibWave heightAir tempDewpointWater temp
2018-Apr-14 10:14N 46°50' W 071°10'9211.6
2018-Apr-14 02:18N 46°04' W 073°05'40 2.1
2018-Apr-13 07:26N 45°28' W 073°30'2 4.3
2018-Apr-13 06:55N 45°26' W 073°30'4 2.3
2018-Apr-13 05:20N 45°24' W 073°35'2 3.4
2018-Apr-13 04:37N 45°24' W 073°38'1 5.3
2018-Apr-13 04:27N 45°25' W 073°40'3 5.6
2018-Apr-13 04:00N 45°24' W 073°43'611.4
2018-Apr-13 03:30N 45°22' W 073°50'5 2.9
2018-Apr-13 01:44N 45°18' W 073°56'0 0.0
2018-Apr-13 01:30N 45°18' W 073°56'2 3.1
2018-Apr-13 00:43N 45°16' W 073°57'  
Track history (hours):
 
Tides and Currents Weather Stations Pressure Air Temp Water Temp Dewpoint Dewpoint Depression Visibility Wind Speed Wind Dir Waves Ship Positions

Brant

Last reported at 2018-Apr-14 10:14 UTC. Time now 2018-Apr-20 22:17 UTC.
Position N 46°50' W 071°10'.

Length 185 m; draft 8.1 m.

Type: Cargo ship. MMSI: 212372000.

Date/timePositionNaut miles runAvg speedWind from/ knotsBaromVisibWave heightAir tempDewpointWater temp
2018-Apr-14 10:14N 46°50' W 071°10'9211.6
2018-Apr-14 02:18N 46°04' W 073°05'40 2.1
2018-Apr-13 07:26N 45°28' W 073°30'2 4.3
2018-Apr-13 06:55N 45°26' W 073°30'4 2.3
2018-Apr-13 05:20N 45°24' W 073°35'2 3.4
2018-Apr-13 04:37N 45°24' W 073°38'1 5.3
2018-Apr-13 04:27N 45°25' W 073°40'3 5.6
2018-Apr-13 04:00N 45°24' W 073°43'611.4
2018-Apr-13 03:30N 45°22' W 073°50'5 2.9
2018-Apr-13 01:44N 45°18' W 073°56'0 0.0
2018-Apr-13 01:30N 45°18' W 073°56'2 3.1
2018-Apr-13 00:43N 45°16' W 073°57'  

Dump ship's entire track history